sensor_id;sensor_type;location;lat;lon;timestamp;P1;durP1;ratioP1;P2;durP2;ratioP2
22166;SDS011;11249;52.468;13.776;2023-05-07T00:00:20;22.25;;;18.38;;
22166;SDS011;11249;52.468;13.776;2023-05-07T00:02:46;23.30;;;17.55;;
22166;SDS011;11249;52.468;13.776;2023-05-07T00:05:14;26.02;;;16.60;;
22166;SDS011;11249;52.468;13.776;2023-05-07T00:07:41;18.58;;;16.65;;
22166;SDS011;11249;52.468;13.776;2023-05-07T00:10:08;23.92;;;17.08;;
22166;SDS011;11249;52.468;13.776;2023-05-07T00:12:39;22.17;;;17.20;;
22166;SDS011;11249;52.468;13.776;2023-05-07T00:15:06;20.13;;;16.23;;
22166;SDS011;11249;52.468;13.776;2023-05-07T00:17:34;19.52;;;15.70;;
22166;SDS011;11249;52.468;13.776;2023-05-07T00:20:01;18.33;;;16.02;;
22166;SDS011;11249;52.468;13.776;2023-05-07T00:25:30;21.40;;;16.42;;
22166;SDS011;11249;52.468;13.776;2023-05-07T00:27:57;24.58;;;17.02;;
22166;SDS011;11249;52.468;13.776;2023-05-07T00:30:28;22.02;;;16.83;;
22166;SDS011;11249;52.468;13.776;2023-05-07T00:32:55;21.10;;;17.55;;
22166;SDS011;11249;52.468;13.776;2023-05-07T00:35:22;20.65;;;16.08;;
22166;SDS011;11249;52.468;13.776;2023-05-07T00:37:49;21.90;;;17.38;;
22166;SDS011;11249;52.468;13.776;2023-05-07T00:40:16;20.85;;;15.95;;
22166;SDS011;11249;52.468;13.776;2023-05-07T00:42:43;20.55;;;17.13;;
22166;SDS011;11249;52.468;13.776;2023-05-07T00:45:13;20.60;;;17.05;;
22166;SDS011;11249;52.468;13.776;2023-05-07T00:47:40;23.33;;;17.88;;
22166;SDS011;11249;52.468;13.776;2023-05-07T00:50:07;21.65;;;17.17;;
22166;SDS011;11249;52.468;13.776;2023-05-07T00:52:37;21.70;;;16.73;;
22166;SDS011;11249;52.468;13.776;2023-05-07T00:55:05;21.70;;;16.65;;
22166;SDS011;11249;52.468;13.776;2023-05-07T00:57:36;22.52;;;16.80;;
22166;SDS011;11249;52.468;13.776;2023-05-07T01:00:06;22.67;;;17.10;;
22166;SDS011;11249;52.468;13.776;2023-05-07T01:02:36;20.83;;;17.70;;
22166;SDS011;11249;52.468;13.776;2023-05-07T01:05:03;20.13;;;17.33;;
22166;SDS011;11249;52.468;13.776;2023-05-07T01:07:33;23.27;;;17.92;;
22166;SDS011;11249;52.468;13.776;2023-05-07T01:10:02;20.38;;;17.33;;
22166;SDS011;11249;52.468;13.776;2023-05-07T01:12:30;22.58;;;17.70;;
22166;SDS011;11249;52.468;13.776;2023-05-07T01:14:57;22.42;;;17.00;;
22166;SDS011;11249;52.468;13.776;2023-05-07T01:17:24;21.58;;;17.85;;
22166;SDS011;11249;52.468;13.776;2023-05-07T01:19:51;22.67;;;17.33;;
22166;SDS011;11249;52.468;13.776;2023-05-07T01:22:29;23.10;;;16.38;;
22166;SDS011;11249;52.468;13.776;2023-05-07T01:24:58;19.85;;;16.77;;
22166;SDS011;11249;52.468;13.776;2023-05-07T01:27:27;21.65;;;16.75;;
22166;SDS011;11249;52.468;13.776;2023-05-07T01:29:54;23.83;;;18.02;;
22166;SDS011;11249;52.468;13.776;2023-05-07T01:32:28;23.23;;;17.52;;
22166;SDS011;11249;52.468;13.776;2023-05-07T01:35:01;19.52;;;17.35;;
22166;SDS011;11249;52.468;13.776;2023-05-07T01:37:32;20.90;;;16.90;;
22166;SDS011;11249;52.468;13.776;2023-05-07T01:40:00;21.15;;;17.30;;
22166;SDS011;11249;52.468;13.776;2023-05-07T01:42:28;21.67;;;16.83;;
22166;SDS011;11249;52.468;13.776;2023-05-07T01:44:55;23.80;;;17.15;;
22166;SDS011;11249;52.468;13.776;2023-05-07T01:47:22;18.73;;;16.38;;
22166;SDS011;11249;52.468;13.776;2023-05-07T01:49:50;21.17;;;16.67;;
22166;SDS011;11249;52.468;13.776;2023-05-07T01:52:17;22.27;;;16.60;;
22166;SDS011;11249;52.468;13.776;2023-05-07T01:54:44;21.13;;;16.50;;
22166;SDS011;11249;52.468;13.776;2023-05-07T01:57:10;21.08;;;16.05;;
22166;SDS011;11249;52.468;13.776;2023-05-07T01:59:37;20.90;;;16.83;;
22166;SDS011;11249;52.468;13.776;2023-05-07T02:02:04;20.33;;;16.80;;
22166;SDS011;11249;52.468;13.776;2023-05-07T02:04:30;19.52;;;16.13;;
22166;SDS011;11249;52.468;13.776;2023-05-07T02:06:57;21.30;;;18.30;;
22166;SDS011;11249;52.468;13.776;2023-05-07T02:09:24;19.85;;;16.75;;
22166;SDS011;11249;52.468;13.776;2023-05-07T02:11:50;21.95;;;17.08;;
22166;SDS011;11249;52.468;13.776;2023-05-07T02:14:17;20.67;;;16.35;;
22166;SDS011;11249;52.468;13.776;2023-05-07T02:16:46;19.80;;;16.85;;
22166;SDS011;11249;52.468;13.776;2023-05-07T02:19:13;24.73;;;18.05;;
22166;SDS011;11249;52.468;13.776;2023-05-07T02:21:39;19.77;;;16.08;;
22166;SDS011;11249;52.468;13.776;2023-05-07T02:24:06;22.58;;;17.70;;
22166;SDS011;11249;52.468;13.776;2023-05-07T02:26:33;20.63;;;18.30;;
22166;SDS011;11249;52.468;13.776;2023-05-07T02:29:00;22.98;;;17.23;;
22166;SDS011;11249;52.468;13.776;2023-05-07T02:31:27;22.73;;;16.50;;
22166;SDS011;11249;52.468;13.776;2023-05-07T02:33:53;18.52;;;15.98;;
22166;SDS011;11249;52.468;13.776;2023-05-07T02:36:20;20.88;;;15.93;;
22166;SDS011;11249;52.468;13.776;2023-05-07T02:38:46;19.77;;;16.33;;
22166;SDS011;11249;52.468;13.776;2023-05-07T02:41:13;24.48;;;17.88;;
22166;SDS011;11249;52.468;13.776;2023-05-07T02:43:40;20.42;;;16.73;;
22166;SDS011;11249;52.468;13.776;2023-05-07T02:46:07;21.05;;;17.45;;
22166;SDS011;11249;52.468;13.776;2023-05-07T02:48:35;21.23;;;16.33;;
22166;SDS011;11249;52.468;13.776;2023-05-07T02:51:02;19.73;;;16.20;;
22166;SDS011;11249;52.468;13.776;2023-05-07T02:53:30;23.52;;;17.38;;
22166;SDS011;11249;52.468;13.776;2023-05-07T02:55:57;25.00;;;17.90;;
22166;SDS011;11249;52.468;13.776;2023-05-07T02:58:25;22.67;;;17.77;;
22166;SDS011;11249;52.468;13.776;2023-05-07T03:00:52;25.42;;;17.02;;
22166;SDS011;11249;52.468;13.776;2023-05-07T03:03:20;19.75;;;16.90;;
22166;SDS011;11249;52.468;13.776;2023-05-07T03:05:47;22.65;;;15.80;;
22166;SDS011;11249;52.468;13.776;2023-05-07T03:08:14;22.52;;;16.52;;
22166;SDS011;11249;52.468;13.776;2023-05-07T03:10:40;20.70;;;16.65;;
22166;SDS011;11249;52.468;13.776;2023-05-07T03:13:07;20.10;;;15.80;;
22166;SDS011;11249;52.468;13.776;2023-05-07T03:15:34;19.38;;;17.13;;
22166;SDS011;11249;52.468;13.776;2023-05-07T03:18:01;22.08;;;16.05;;
22166;SDS011;11249;52.468;13.776;2023-05-07T03:20:28;22.50;;;18.25;;
22166;SDS011;11249;52.468;13.776;2023-05-07T03:22:56;21.75;;;17.13;;
22166;SDS011;11249;52.468;13.776;2023-05-07T03:25:23;25.23;;;17.60;;
22166;SDS011;11249;52.468;13.776;2023-05-07T03:27:49;21.15;;;17.58;;
22166;SDS011;11249;52.468;13.776;2023-05-07T03:30:16;24.42;;;16.83;;
22166;SDS011;11249;52.468;13.776;2023-05-07T03:32:43;23.50;;;17.45;;
22166;SDS011;11249;52.468;13.776;2023-05-07T03:35:10;22.13;;;16.95;;
22166;SDS011;11249;52.468;13.776;2023-05-07T03:37:37;22.52;;;17.65;;
22166;SDS011;11249;52.468;13.776;2023-05-07T03:40:04;19.92;;;17.05;;
22166;SDS011;11249;52.468;13.776;2023-05-07T03:42:32;20.83;;;16.90;;
22166;SDS011;11249;52.468;13.776;2023-05-07T03:44:58;22.13;;;16.23;;
22166;SDS011;11249;52.468;13.776;2023-05-07T03:47:25;24.17;;;16.20;;
22166;SDS011;11249;52.468;13.776;2023-05-07T03:49:52;22.10;;;14.98;;
22166;SDS011;11249;52.468;13.776;2023-05-07T03:52:20;19.13;;;15.13;;
22166;SDS011;11249;52.468;13.776;2023-05-07T03:54:50;19.38;;;16.25;;
22166;SDS011;11249;52.468;13.776;2023-05-07T03:57:18;18.77;;;15.68;;
22166;SDS011;11249;52.468;13.776;2023-05-07T03:59:45;20.23;;;15.30;;
22166;SDS011;11249;52.468;13.776;2023-05-07T04:02:12;16.88;;;15.07;;
22166;SDS011;11249;52.468;13.776;2023-05-07T04:04:38;19.60;;;15.45;;
22166;SDS011;11249;52.468;13.776;2023-05-07T04:07:05;18.90;;;15.57;;
22166;SDS011;11249;52.468;13.776;2023-05-07T04:09:33;22.40;;;15.00;;
22166;SDS011;11249;52.468;13.776;2023-05-07T04:12:00;19.27;;;14.10;;
22166;SDS011;11249;52.468;13.776;2023-05-07T04:14:27;19.63;;;14.27;;
22166;SDS011;11249;52.468;13.776;2023-05-07T04:16:54;15.98;;;13.60;;
22166;SDS011;11249;52.468;13.776;2023-05-07T04:19:21;16.33;;;13.48;;
22166;SDS011;11249;52.468;13.776;2023-05-07T04:21:47;16.80;;;13.57;;
22166;SDS011;11249;52.468;13.776;2023-05-07T04:24:14;16.30;;;14.02;;
22166;SDS011;11249;52.468;13.776;2023-05-07T04:26:41;14.60;;;13.00;;
22166;SDS011;11249;52.468;13.776;2023-05-07T04:29:07;17.45;;;13.35;;
22166;SDS011;11249;52.468;13.776;2023-05-07T04:31:34;15.35;;;12.70;;
22166;SDS011;11249;52.468;13.776;2023-05-07T04:34:01;15.32;;;12.50;;
22166;SDS011;11249;52.468;13.776;2023-05-07T04:36:28;17.95;;;13.13;;
22166;SDS011;11249;52.468;13.776;2023-05-07T04:38:55;19.25;;;12.90;;
22166;SDS011;11249;52.468;13.776;2023-05-07T04:41:21;17.48;;;12.43;;
22166;SDS011;11249;52.468;13.776;2023-05-07T04:43:48;16.98;;;12.90;;
22166;SDS011;11249;52.468;13.776;2023-05-07T04:46:15;14.70;;;12.48;;
22166;SDS011;11249;52.468;13.776;2023-05-07T04:48:42;16.35;;;12.48;;
22166;SDS011;11249;52.468;13.776;2023-05-07T04:51:09;14.43;;;11.65;;
22166;SDS011;11249;52.468;13.776;2023-05-07T04:53:36;17.10;;;13.60;;
22166;SDS011;11249;52.468;13.776;2023-05-07T04:56:03;15.23;;;12.70;;
22166;SDS011;11249;52.468;13.776;2023-05-07T04:58:30;16.05;;;12.95;;
22166;SDS011;11249;52.468;13.776;2023-05-07T05:00:58;17.60;;;12.75;;
22166;SDS011;11249;52.468;13.776;2023-05-07T05:03:26;17.38;;;13.13;;
22166;SDS011;11249;52.468;13.776;2023-05-07T05:05:53;15.10;;;12.45;;
22166;SDS011;11249;52.468;13.776;2023-05-07T05:08:20;17.90;;;12.95;;
22166;SDS011;11249;52.468;13.776;2023-05-07T05:10:46;17.75;;;12.88;;
22166;SDS011;11249;52.468;13.776;2023-05-07T05:13:16;17.80;;;12.80;;
22166;SDS011;11249;52.468;13.776;2023-05-07T05:15:43;17.30;;;13.23;;
22166;SDS011;11249;52.468;13.776;2023-05-07T05:18:10;15.70;;;12.85;;
22166;SDS011;11249;52.468;13.776;2023-05-07T05:20:36;16.25;;;12.43;;
22166;SDS011;11249;52.468;13.776;2023-05-07T05:23:03;18.30;;;12.38;;
22166;SDS011;11249;52.468;13.776;2023-05-07T05:25:30;17.30;;;12.40;;
22166;SDS011;11249;52.468;13.776;2023-05-07T05:27:56;14.00;;;11.95;;
22166;SDS011;11249;52.468;13.776;2023-05-07T05:30:23;13.38;;;11.93;;
22166;SDS011;11249;52.468;13.776;2023-05-07T05:32:50;14.80;;;11.88;;
22166;SDS011;11249;52.468;13.776;2023-05-07T05:35:16;16.95;;;12.05;;
22166;SDS011;11249;52.468;13.776;2023-05-07T05:37:43;16.88;;;11.73;;
22166;SDS011;11249;52.468;13.776;2023-05-07T05:40:10;16.85;;;11.05;;
22166;SDS011;11249;52.468;13.776;2023-05-07T05:42:37;17.75;;;12.00;;
22166;SDS011;11249;52.468;13.776;2023-05-07T05:45:04;16.33;;;12.35;;
22166;SDS011;11249;52.468;13.776;2023-05-07T05:47:32;17.58;;;11.95;;
22166;SDS011;11249;52.468;13.776;2023-05-07T05:49:58;14.52;;;11.70;;
22166;SDS011;11249;52.468;13.776;2023-05-07T05:52:25;14.95;;;11.32;;
22166;SDS011;11249;52.468;13.776;2023-05-07T05:54:53;14.30;;;11.48;;
22166;SDS011;11249;52.468;13.776;2023-05-07T05:57:20;16.13;;;11.57;;
22166;SDS011;11249;52.468;13.776;2023-05-07T05:59:46;14.55;;;12.07;;
22166;SDS011;11249;52.468;13.776;2023-05-07T06:02:13;15.15;;;11.18;;
22166;SDS011;11249;52.468;13.776;2023-05-07T06:04:40;17.58;;;12.13;;
22166;SDS011;11249;52.468;13.776;2023-05-07T06:07:09;13.70;;;10.88;;
22166;SDS011;11249;52.468;13.776;2023-05-07T06:09:35;14.95;;;11.30;;
22166;SDS011;11249;52.468;13.776;2023-05-07T06:12:02;14.38;;;11.05;;
22166;SDS011;11249;52.468;13.776;2023-05-07T06:14:29;14.18;;;10.75;;
22166;SDS011;11249;52.468;13.776;2023-05-07T06:16:56;11.93;;;9.43;;
22166;SDS011;11249;52.468;13.776;2023-05-07T06:19:23;13.88;;;10.63;;
22166;SDS011;11249;52.468;13.776;2023-05-07T06:21:50;12.73;;;9.25;;
22166;SDS011;11249;52.468;13.776;2023-05-07T06:24:17;14.88;;;8.77;;
22166;SDS011;11249;52.468;13.776;2023-05-07T06:26:43;12.13;;;8.90;;
22166;SDS011;11249;52.468;13.776;2023-05-07T06:29:10;10.55;;;8.40;;
22166;SDS011;11249;52.468;13.776;2023-05-07T06:31:37;11.25;;;9.02;;
22166;SDS011;11249;52.468;13.776;2023-05-07T06:34:03;13.30;;;9.15;;
22166;SDS011;11249;52.468;13.776;2023-05-07T06:36:31;9.55;;;7.35;;
22166;SDS011;11249;52.468;13.776;2023-05-07T06:38:57;9.85;;;8.27;;
22166;SDS011;11249;52.468;13.776;2023-05-07T06:41:24;10.45;;;8.05;;
22166;SDS011;11249;52.468;13.776;2023-05-07T06:43:52;9.60;;;8.55;;
22166;SDS011;11249;52.468;13.776;2023-05-07T06:46:18;9.35;;;7.60;;
22166;SDS011;11249;52.468;13.776;2023-05-07T06:48:45;10.15;;;8.32;;
22166;SDS011;11249;52.468;13.776;2023-05-07T06:51:12;9.10;;;8.07;;
22166;SDS011;11249;52.468;13.776;2023-05-07T06:53:39;11.35;;;8.60;;
22166;SDS011;11249;52.468;13.776;2023-05-07T06:56:06;9.75;;;8.48;;
22166;SDS011;11249;52.468;13.776;2023-05-07T06:58:33;9.88;;;8.25;;
22166;SDS011;11249;52.468;13.776;2023-05-07T07:01:00;10.60;;;8.43;;
22166;SDS011;11249;52.468;13.776;2023-05-07T07:03:27;8.07;;;6.93;;
22166;SDS011;11249;52.468;13.776;2023-05-07T07:05:54;9.18;;;7.75;;
22166;SDS011;11249;52.468;13.776;2023-05-07T07:08:21;10.63;;;7.15;;
22166;SDS011;11249;52.468;13.776;2023-05-07T07:10:48;8.30;;;7.50;;
22166;SDS011;11249;52.468;13.776;2023-05-07T07:13:15;9.77;;;7.55;;
22166;SDS011;11249;52.468;13.776;2023-05-07T07:15:42;9.80;;;7.25;;
22166;SDS011;11249;52.468;13.776;2023-05-07T07:18:09;8.88;;;7.00;;
22166;SDS011;11249;52.468;13.776;2023-05-07T07:20:36;10.18;;;7.60;;
22166;SDS011;11249;52.468;13.776;2023-05-07T07:23:03;8.40;;;7.30;;
22166;SDS011;11249;52.468;13.776;2023-05-07T07:25:30;8.88;;;7.38;;
22166;SDS011;11249;52.468;13.776;2023-05-07T07:27:56;9.73;;;7.22;;
22166;SDS011;11249;52.468;13.776;2023-05-07T07:30:23;9.65;;;6.97;;
22166;SDS011;11249;52.468;13.776;2023-05-07T07:32:52;9.65;;;6.30;;
22166;SDS011;11249;52.468;13.776;2023-05-07T07:35:19;8.48;;;6.65;;
22166;SDS011;11249;52.468;13.776;2023-05-07T07:37:46;7.07;;;5.63;;
22166;SDS011;11249;52.468;13.776;2023-05-07T07:40:15;7.43;;;5.90;;
22166;SDS011;11249;52.468;13.776;2023-05-07T07:42:42;5.88;;;5.28;;
22166;SDS011;11249;52.468;13.776;2023-05-07T07:45:09;5.82;;;5.13;;
22166;SDS011;11249;52.468;13.776;2023-05-07T07:47:36;6.53;;;4.72;;
22166;SDS011;11249;52.468;13.776;2023-05-07T07:50:03;7.22;;;5.43;;
22166;SDS011;11249;52.468;13.776;2023-05-07T07:52:30;5.90;;;5.30;;
22166;SDS011;11249;52.468;13.776;2023-05-07T07:54:57;6.05;;;4.80;;
22166;SDS011;11249;52.468;13.776;2023-05-07T07:57:23;7.75;;;5.28;;
22166;SDS011;11249;52.468;13.776;2023-05-07T07:59:50;10.45;;;5.25;;
22166;SDS011;11249;52.468;13.776;2023-05-07T08:02:17;8.73;;;5.20;;
22166;SDS011;11249;52.468;13.776;2023-05-07T08:04:44;7.63;;;4.70;;
22166;SDS011;11249;52.468;13.776;2023-05-07T08:07:11;5.38;;;4.53;;
22166;SDS011;11249;52.468;13.776;2023-05-07T08:09:38;5.43;;;4.60;;
22166;SDS011;11249;52.468;13.776;2023-05-07T08:12:05;8.18;;;4.93;;
22166;SDS011;11249;52.468;13.776;2023-05-07T08:14:33;5.55;;;4.65;;
22166;SDS011;11249;52.468;13.776;2023-05-07T08:17:00;6.68;;;4.95;;
22166;SDS011;11249;52.468;13.776;2023-05-07T08:19:27;4.85;;;4.28;;
22166;SDS011;11249;52.468;13.776;2023-05-07T08:21:54;4.78;;;3.88;;
22166;SDS011;11249;52.468;13.776;2023-05-07T08:24:21;5.25;;;4.72;;
22166;SDS011;11249;52.468;13.776;2023-05-07T08:26:48;7.80;;;4.10;;
22166;SDS011;11249;52.468;13.776;2023-05-07T08:29:15;5.13;;;4.57;;
22166;SDS011;11249;52.468;13.776;2023-05-07T08:31:42;7.00;;;4.25;;
22166;SDS011;11249;52.468;13.776;2023-05-07T08:34:09;6.20;;;4.50;;
22166;SDS011;11249;52.468;13.776;2023-05-07T08:36:36;6.40;;;4.70;;
22166;SDS011;11249;52.468;13.776;2023-05-07T08:39:03;5.03;;;4.05;;
22166;SDS011;11249;52.468;13.776;2023-05-07T08:41:30;8.25;;;4.53;;
22166;SDS011;11249;52.468;13.776;2023-05-07T08:47:50;5.38;;;4.05;;
22166;SDS011;11249;52.468;13.776;2023-05-07T08:50:21;4.53;;;3.78;;
22166;SDS011;11249;52.468;13.776;2023-05-07T08:52:47;4.38;;;3.97;;
22166;SDS011;11249;52.468;13.776;2023-05-07T08:55:15;4.93;;;4.03;;
22166;SDS011;11249;52.468;13.776;2023-05-07T08:57:41;4.53;;;3.63;;
22166;SDS011;11249;52.468;13.776;2023-05-07T09:00:08;5.93;;;3.90;;
22166;SDS011;11249;52.468;13.776;2023-05-07T09:02:36;5.45;;;3.95;;
22166;SDS011;11249;52.468;13.776;2023-05-07T09:05:03;4.15;;;3.47;;
22166;SDS011;11249;52.468;13.776;2023-05-07T09:07:30;4.93;;;3.22;;
22166;SDS011;11249;52.468;13.776;2023-05-07T09:09:57;4.85;;;2.83;;
22166;SDS011;11249;52.468;13.776;2023-05-07T09:12:24;6.20;;;2.80;;
22166;SDS011;11249;52.468;13.776;2023-05-07T09:14:50;6.57;;;2.92;;
22166;SDS011;11249;52.468;13.776;2023-05-07T09:17:17;3.65;;;2.70;;
22166;SDS011;11249;52.468;13.776;2023-05-07T09:19:44;3.35;;;2.40;;
22166;SDS011;11249;52.468;13.776;2023-05-07T09:22:12;2.83;;;1.77;;
22166;SDS011;11249;52.468;13.776;2023-05-07T09:24:39;2.75;;;2.20;;
22166;SDS011;11249;52.468;13.776;2023-05-07T09:27:06;3.03;;;2.50;;
22166;SDS011;11249;52.468;13.776;2023-05-07T09:29:34;2.25;;;2.05;;
22166;SDS011;11249;52.468;13.776;2023-05-07T09:32:05;3.23;;;2.43;;
22166;SDS011;11249;52.468;13.776;2023-05-07T09:34:32;4.30;;;2.13;;
22166;SDS011;11249;52.468;13.776;2023-05-07T09:37:02;2.80;;;2.47;;
22166;SDS011;11249;52.468;13.776;2023-05-07T09:39:46;2.20;;;1.95;;
22166;SDS011;11249;52.468;13.776;2023-05-07T09:42:14;3.45;;;2.15;;
22166;SDS011;11249;52.468;13.776;2023-05-07T09:44:41;4.50;;;1.90;;
22166;SDS011;11249;52.468;13.776;2023-05-07T09:47:09;2.22;;;2.03;;
22166;SDS011;11249;52.468;13.776;2023-05-07T09:49:39;4.03;;;2.03;;
22166;SDS011;11249;52.468;13.776;2023-05-07T09:52:08;3.15;;;2.03;;
22166;SDS011;11249;52.468;13.776;2023-05-07T09:54:36;3.65;;;2.20;;
22166;SDS011;11249;52.468;13.776;2023-05-07T09:57:04;3.78;;;1.80;;
22166;SDS011;11249;52.468;13.776;2023-05-07T09:59:33;3.20;;;2.03;;
22166;SDS011;11249;52.468;13.776;2023-05-07T10:02:02;5.47;;;2.13;;
22166;SDS011;11249;52.468;13.776;2023-05-07T10:04:31;3.72;;;2.00;;
22166;SDS011;11249;52.468;13.776;2023-05-07T10:06:58;2.63;;;2.17;;
22166;SDS011;11249;52.468;13.776;2023-05-07T10:09:26;2.33;;;2.13;;
22166;SDS011;11249;52.468;13.776;2023-05-07T10:11:52;3.20;;;1.90;;
22166;SDS011;11249;52.468;13.776;2023-05-07T10:14:21;2.95;;;2.22;;
22166;SDS011;11249;52.468;13.776;2023-05-07T10:16:47;4.68;;;2.63;;
22166;SDS011;11249;52.468;13.776;2023-05-07T10:19:15;3.38;;;2.25;;
22166;SDS011;11249;52.468;13.776;2023-05-07T10:21:54;2.97;;;2.17;;
22166;SDS011;11249;52.468;13.776;2023-05-07T10:24:26;3.30;;;2.17;;
22166;SDS011;11249;52.468;13.776;2023-05-07T10:26:57;4.07;;;2.13;;
22166;SDS011;11249;52.468;13.776;2023-05-07T10:34:37;5.57;;;2.10;;
22166;SDS011;11249;52.468;13.776;2023-05-07T10:37:07;4.30;;;2.22;;
22166;SDS011;11249;52.468;13.776;2023-05-07T10:39:37;4.10;;;2.08;;
22166;SDS011;11249;52.468;13.776;2023-05-07T10:42:07;3.10;;;2.25;;
22166;SDS011;11249;52.468;13.776;2023-05-07T10:44:38;3.33;;;2.35;;
22166;SDS011;11249;52.468;13.776;2023-05-07T10:47:06;2.55;;;2.35;;
22166;SDS011;11249;52.468;13.776;2023-05-07T10:49:36;4.45;;;2.47;;
22166;SDS011;11249;52.468;13.776;2023-05-07T10:52:24;3.38;;;2.00;;
22166;SDS011;11249;52.468;13.776;2023-05-07T10:57:52;5.72;;;2.17;;
22166;SDS011;11249;52.468;13.776;2023-05-07T11:00:40;4.00;;;2.30;;
22166;SDS011;11249;52.468;13.776;2023-05-07T11:03:05;4.22;;;2.22;;
22166;SDS011;11249;52.468;13.776;2023-05-07T11:05:33;2.13;;;1.67;;
22166;SDS011;11249;52.468;13.776;2023-05-07T11:18:49;2.15;;;1.75;;
22166;SDS011;11249;52.468;13.776;2023-05-07T11:21:35;3.10;;;1.50;;
22166;SDS011;11249;52.468;13.776;2023-05-07T11:24:04;4.05;;;1.90;;
22166;SDS011;11249;52.468;13.776;2023-05-07T11:26:42;2.05;;;1.50;;
22166;SDS011;11249;52.468;13.776;2023-05-07T11:29:19;3.78;;;1.73;;
22166;SDS011;11249;52.468;13.776;2023-05-07T11:31:52;2.13;;;1.60;;
22166;SDS011;11249;52.468;13.776;2023-05-07T11:34:21;3.35;;;1.92;;
22166;SDS011;11249;52.468;13.776;2023-05-07T11:36:49;2.80;;;1.60;;
22166;SDS011;11249;52.468;13.776;2023-05-07T11:39:31;3.60;;;1.83;;
22166;SDS011;11249;52.468;13.776;2023-05-07T11:42:02;4.03;;;1.75;;
22166;SDS011;11249;52.468;13.776;2023-05-07T11:44:40;2.75;;;1.50;;
22166;SDS011;11249;52.468;13.776;2023-05-07T11:47:07;3.33;;;1.77;;
22166;SDS011;11249;52.468;13.776;2023-05-07T11:49:34;3.28;;;1.77;;
22166;SDS011;11249;52.468;13.776;2023-05-07T11:52:01;2.40;;;1.33;;
22166;SDS011;11249;52.468;13.776;2023-05-07T11:54:37;2.88;;;1.50;;
22166;SDS011;11249;52.468;13.776;2023-05-07T11:57:04;2.67;;;1.90;;
22166;SDS011;11249;52.468;13.776;2023-05-07T11:59:38;3.58;;;1.90;;
22166;SDS011;11249;52.468;13.776;2023-05-07T12:02:10;3.08;;;1.88;;
22166;SDS011;11249;52.468;13.776;2023-05-07T12:04:39;3.88;;;1.88;;
22166;SDS011;11249;52.468;13.776;2023-05-07T12:07:10;2.33;;;1.65;;
22166;SDS011;11249;52.468;13.776;2023-05-07T12:09:39;3.30;;;1.75;;
22166;SDS011;11249;52.468;13.776;2023-05-07T12:12:07;2.08;;;1.63;;
22166;SDS011;11249;52.468;13.776;2023-05-07T12:14:37;2.58;;;1.65;;
22166;SDS011;11249;52.468;13.776;2023-05-07T12:17:08;3.70;;;1.70;;
22166;SDS011;11249;52.468;13.776;2023-05-07T12:19:35;3.00;;;1.65;;
22166;SDS011;11249;52.468;13.776;2023-05-07T12:22:03;3.85;;;2.03;;
22166;SDS011;11249;52.468;13.776;2023-05-07T12:24:42;11.18;;;4.55;;
22166;SDS011;11249;52.468;13.776;2023-05-07T12:27:22;2.78;;;1.73;;
22166;SDS011;11249;52.468;13.776;2023-05-07T12:29:50;3.55;;;1.60;;
22166;SDS011;11249;52.468;13.776;2023-05-07T12:32:17;3.42;;;1.58;;
22166;SDS011;11249;52.468;13.776;2023-05-07T12:34:46;2.20;;;1.60;;
22166;SDS011;11249;52.468;13.776;2023-05-07T12:37:15;3.08;;;1.65;;
22166;SDS011;11249;52.468;13.776;2023-05-07T12:39:49;4.32;;;1.80;;
22166;SDS011;11249;52.468;13.776;2023-05-07T12:42:32;3.65;;;1.95;;
22166;SDS011;11249;52.468;13.776;2023-05-07T12:45:35;1.75;;;1.60;;
22166;SDS011;11249;52.468;13.776;2023-05-07T12:47:54;4.90;;;2.03;;
22166;SDS011;11249;52.468;13.776;2023-05-07T12:50:21;4.38;;;2.28;;
22166;SDS011;11249;52.468;13.776;2023-05-07T12:52:48;2.08;;;1.52;;
22166;SDS011;11249;52.468;13.776;2023-05-07T12:55:15;1.95;;;1.58;;
22166;SDS011;11249;52.468;13.776;2023-05-07T12:57:47;2.78;;;1.75;;
22166;SDS011;11249;52.468;13.776;2023-05-07T13:00:15;3.03;;;1.80;;
22166;SDS011;11249;52.468;13.776;2023-05-07T13:02:42;2.35;;;1.83;;
22166;SDS011;11249;52.468;13.776;2023-05-07T13:05:11;6.07;;;1.77;;
22166;SDS011;11249;52.468;13.776;2023-05-07T13:07:38;2.72;;;1.65;;
22166;SDS011;11249;52.468;13.776;2023-05-07T13:10:07;1.80;;;1.70;;
22166;SDS011;11249;52.468;13.776;2023-05-07T13:12:34;2.85;;;1.77;;
22166;SDS011;11249;52.468;13.776;2023-05-07T13:15:01;2.72;;;1.60;;
22166;SDS011;11249;52.468;13.776;2023-05-07T13:17:28;2.13;;;1.70;;
22166;SDS011;11249;52.468;13.776;2023-05-07T13:19:57;2.22;;;1.80;;
22166;SDS011;11249;52.468;13.776;2023-05-07T13:22:23;2.78;;;1.50;;
22166;SDS011;11249;52.468;13.776;2023-05-07T13:24:50;2.08;;;1.42;;
22166;SDS011;11249;52.468;13.776;2023-05-07T13:27:17;2.58;;;1.70;;
22166;SDS011;11249;52.468;13.776;2023-05-07T13:29:45;1.95;;;1.77;;
22166;SDS011;11249;52.468;13.776;2023-05-07T13:32:11;1.85;;;1.60;;
22166;SDS011;11249;52.468;13.776;2023-05-07T13:34:38;2.70;;;1.63;;
22166;SDS011;11249;52.468;13.776;2023-05-07T13:37:05;1.80;;;1.63;;
22166;SDS011;11249;52.468;13.776;2023-05-07T13:39:36;4.90;;;1.95;;
22166;SDS011;11249;52.468;13.776;2023-05-07T13:42:03;2.40;;;1.67;;
22166;SDS011;11249;52.468;13.776;2023-05-07T13:44:30;2.28;;;1.40;;
22166;SDS011;11249;52.468;13.776;2023-05-07T13:46:56;5.85;;;1.27;;
22166;SDS011;11249;52.468;13.776;2023-05-07T13:49:23;1.60;;;1.50;;
22166;SDS011;11249;52.468;13.776;2023-05-07T13:51:50;4.35;;;1.42;;
22166;SDS011;11249;52.468;13.776;2023-05-07T13:54:17;1.63;;;1.38;;
22166;SDS011;11249;52.468;13.776;2023-05-07T13:56:43;1.73;;;1.42;;
22166;SDS011;11249;52.468;13.776;2023-05-07T13:59:10;1.77;;;1.08;;
22166;SDS011;11249;52.468;13.776;2023-05-07T14:01:37;2.75;;;1.40;;
22166;SDS011;11249;52.468;13.776;2023-05-07T14:04:03;1.58;;;1.30;;
22166;SDS011;11249;52.468;13.776;2023-05-07T14:06:30;3.78;;;1.65;;
22166;SDS011;11249;52.468;13.776;2023-05-07T14:08:57;1.35;;;1.25;;
22166;SDS011;11249;52.468;13.776;2023-05-07T14:11:24;3.92;;;1.50;;
22166;SDS011;11249;52.468;13.776;2023-05-07T14:13:51;2.63;;;1.25;;
22166;SDS011;11249;52.468;13.776;2023-05-07T14:16:17;1.60;;;1.33;;
22166;SDS011;11249;52.468;13.776;2023-05-07T14:18:44;3.42;;;1.50;;
22166;SDS011;11249;52.468;13.776;2023-05-07T14:21:11;2.15;;;1.33;;
22166;SDS011;11249;52.468;13.776;2023-05-07T14:23:37;1.58;;;1.48;;
22166;SDS011;11249;52.468;13.776;2023-05-07T14:26:04;3.55;;;1.50;;
22166;SDS011;11249;52.468;13.776;2023-05-07T14:28:31;2.78;;;1.40;;
22166;SDS011;11249;52.468;13.776;2023-05-07T14:30:57;3.55;;;1.40;;
22166;SDS011;11249;52.468;13.776;2023-05-07T14:33:24;1.58;;;1.20;;
22166;SDS011;11249;52.468;13.776;2023-05-07T14:35:51;1.38;;;1.27;;
22166;SDS011;11249;52.468;13.776;2023-05-07T14:38:18;3.40;;;1.30;;
22166;SDS011;11249;52.468;13.776;2023-05-07T14:40:44;2.45;;;1.27;;
22166;SDS011;11249;52.468;13.776;2023-05-07T14:43:11;3.55;;;1.20;;
22166;SDS011;11249;52.468;13.776;2023-05-07T14:45:38;1.67;;;1.50;;
22166;SDS011;11249;52.468;13.776;2023-05-07T14:48:04;3.30;;;1.35;;
22166;SDS011;11249;52.468;13.776;2023-05-07T14:50:31;2.50;;;1.40;;
22166;SDS011;11249;52.468;13.776;2023-05-07T14:52:58;3.83;;;1.30;;